createdAt,value
2023-02-28T00:48:06.445Z,14.54
2023-02-28T00:49:06.453Z,14.50
2023-02-28T00:50:06.464Z,14.52
2023-02-28T00:51:06.499Z,14.47
2023-02-28T00:52:06.494Z,14.50
2023-02-28T00:53:06.505Z,14.47
2023-02-28T00:54:06.623Z,14.49
2023-02-28T00:55:06.535Z,14.44
2023-02-28T00:56:06.590Z,14.44
2023-02-28T00:57:06.606Z,14.44
2023-02-28T00:58:06.580Z,14.49
2023-02-28T00:59:06.591Z,14.46
2023-02-28T01:00:06.596Z,14.41
2023-02-28T01:01:06.704Z,14.41
2023-02-28T01:02:06.644Z,14.40
2023-02-28T01:03:06.650Z,14.43
2023-02-28T01:04:06.720Z,14.49
2023-02-28T01:05:06.661Z,14.40
2023-02-28T01:06:06.680Z,14.38
2023-02-28T01:07:06.684Z,14.44
2023-02-28T01:08:06.683Z,14.43
2023-02-28T01:09:06.700Z,14.43
2023-02-28T01:10:06.696Z,14.38
2023-02-28T01:11:06.725Z,14.40
2023-02-28T01:12:06.748Z,14.37
2023-02-28T01:13:06.722Z,14.40
2023-02-28T01:14:06.733Z,14.37
2023-02-28T01:15:06.727Z,14.39
2023-02-28T01:16:06.833Z,14.42
2023-02-28T01:17:06.758Z,14.30
2023-02-28T01:18:06.752Z,14.36
2023-02-28T01:19:06.759Z,14.34
2023-02-28T01:20:06.775Z,14.34
2023-02-28T01:21:06.748Z,14.36
2023-02-28T01:22:06.759Z,14.37
2023-02-28T01:23:06.756Z,14.34
2023-02-28T01:24:06.771Z,14.36
2023-02-28T01:25:06.840Z,14.36
2023-02-28T01:26:06.776Z,14.39
2023-02-28T01:27:06.787Z,14.37
2023-02-28T01:28:06.868Z,14.34
2023-02-28T01:29:06.740Z,14.33
2023-02-28T01:30:06.725Z,14.33
2023-02-28T01:31:06.787Z,14.33
2023-02-28T01:32:06.760Z,14.31
2023-02-28T01:33:06.718Z,14.34
2023-02-28T01:34:06.694Z,14.28
2023-02-28T01:35:06.712Z,14.33
2023-02-28T01:36:06.755Z,14.30
2023-02-28T01:37:06.726Z,14.28
2023-02-28T01:38:20.877Z,14.33
2023-02-28T01:39:07.685Z,14.24
2023-02-28T01:40:06.686Z,14.30
2023-02-28T01:41:06.684Z,14.28
2023-02-28T01:42:06.673Z,14.30
2023-02-28T01:43:06.682Z,14.32
2023-02-28T01:44:06.700Z,14.26
2023-02-28T01:45:06.634Z,14.30
2023-02-28T01:46:06.671Z,14.26
2023-02-28T01:47:06.642Z,14.26
2023-02-28T01:48:06.651Z,14.27
2023-02-28T01:49:06.650Z,14.26
2023-02-28T01:50:06.620Z,14.26
2023-02-28T01:51:06.610Z,14.27
2023-02-28T01:52:06.605Z,14.24
2023-02-28T01:53:06.617Z,14.30
2023-02-28T01:54:06.605Z,14.27
2023-02-28T01:55:06.585Z,14.29
2023-02-28T01:56:06.557Z,14.31
2023-02-28T01:57:06.578Z,14.26
2023-02-28T01:58:07.176Z,14.29
2023-02-28T01:59:06.586Z,14.26
2023-02-28T02:00:06.564Z,14.24
2023-02-28T02:01:06.520Z,14.31
2023-02-28T02:02:06.611Z,14.24
2023-02-28T02:03:06.636Z,14.27
2023-02-28T02:04:06.509Z,14.30
2023-02-28T02:05:06.511Z,14.26
2023-02-28T02:06:06.534Z,14.22
2023-02-28T02:07:06.531Z,14.26
2023-02-28T02:08:06.540Z,14.26
2023-02-28T02:09:06.590Z,14.31
2023-02-28T02:10:06.609Z,14.29
2023-02-28T02:11:06.639Z,14.27
2023-02-28T02:12:06.693Z,14.26
2023-02-28T02:13:06.746Z,14.34
2023-02-28T02:14:06.784Z,14.22
2023-02-28T02:15:06.829Z,14.23
2023-02-28T02:16:06.944Z,14.23
2023-02-28T02:17:06.906Z,14.23
2023-02-28T02:18:06.942Z,14.31
2023-02-28T02:19:07.000Z,14.25
2023-02-28T02:20:07.027Z,14.26
2023-02-28T02:21:07.078Z,14.26
2023-02-28T02:22:07.154Z,14.17
2023-02-28T02:23:07.212Z,14.19
2023-02-28T02:24:07.290Z,14.20
2023-02-28T02:25:07.397Z,14.20
2023-02-28T02:26:07.367Z,14.26
2023-02-28T02:27:07.389Z,14.19
2023-02-28T02:28:07.451Z,14.22
2023-02-28T02:29:07.547Z,14.22
2023-02-28T02:30:07.558Z,14.17
2023-02-28T02:31:07.706Z,14.23
2023-02-28T02:32:07.724Z,14.20
2023-02-28T02:52:08.878Z,14.11
2023-02-28T02:53:08.963Z,14.11
2023-02-28T02:54:08.995Z,14.07
2023-02-28T02:55:09.092Z,14.13
2023-02-28T02:56:09.134Z,14.15
2023-02-28T02:57:09.197Z,14.17
2023-02-28T02:58:09.272Z,14.15
2023-02-28T02:59:09.346Z,14.09
2023-02-28T03:00:09.395Z,14.11
2023-02-28T03:01:09.519Z,14.13
2023-02-28T03:02:09.504Z,14.11
2023-02-28T03:03:09.535Z,14.10
2023-02-28T03:04:09.677Z,14.09
2023-02-28T03:05:09.668Z,14.13
2023-02-28T03:06:09.756Z,14.05
2023-02-28T03:07:09.777Z,14.07
2023-02-28T03:08:09.857Z,14.06
2023-02-28T03:09:09.927Z,14.04
2023-02-28T03:10:09.965Z,14.09
2023-02-28T03:11:10.024Z,14.10
2023-02-28T03:12:10.115Z,14.09
2023-02-28T03:13:10.162Z,14.06
2023-02-28T03:14:10.193Z,14.07
2023-02-28T03:15:10.271Z,14.03
2023-02-28T03:16:10.333Z,14.04
2023-02-28T03:17:10.395Z,14.03
2023-02-28T03:18:10.432Z,14.06
2023-02-28T03:19:10.490Z,14.06
2023-02-28T03:20:10.552Z,14.06
2023-02-28T03:21:10.601Z,14.03
2023-02-28T03:22:10.629Z,14.01
2023-02-28T03:23:10.707Z,14.01
2023-02-28T03:24:10.768Z,14.00
2023-02-28T03:25:10.813Z,14.01
2023-02-28T03:26:10.862Z,14.03
2023-02-28T03:27:10.902Z,13.95
2023-02-28T03:28:10.965Z,14.00
2023-02-28T03:29:11.012Z,13.98
2023-02-28T03:30:11.069Z,14.01
2023-02-28T03:31:11.990Z,14.01
2023-02-28T03:32:11.256Z,14.01
2023-02-28T03:33:11.232Z,14.00
2023-02-28T03:34:11.258Z,13.92
2023-02-28T03:35:11.279Z,13.95
2023-02-28T03:36:11.355Z,14.04
2023-02-28T03:37:11.436Z,13.95
2023-02-28T03:38:11.461Z,13.98
2023-02-28T03:39:11.498Z,14.01
2023-02-28T03:40:11.586Z,13.94
2023-02-28T03:41:11.598Z,13.94
2023-02-28T03:42:11.697Z,13.97
2023-02-28T03:43:11.693Z,14.00
2023-02-28T03:44:11.762Z,14.01
2023-02-28T03:45:11.796Z,13.95
2023-02-28T03:46:11.929Z,13.97
2023-02-28T03:47:11.914Z,13.97
2023-02-28T03:48:11.962Z,13.97
2023-02-28T03:49:12.029Z,13.92
2023-02-28T03:50:12.048Z,13.91
2023-02-28T03:51:12.112Z,13.97
2023-02-28T03:52:12.121Z,13.95
2023-02-28T03:53:12.189Z,13.91
2023-02-28T03:54:12.242Z,13.91
2023-02-28T03:55:12.298Z,13.86
2023-02-28T03:56:12.307Z,13.94
2023-02-28T03:57:12.379Z,13.89
2023-02-28T03:58:12.391Z,13.86
2023-02-28T03:59:12.471Z,13.86
2023-02-28T04:00:12.504Z,13.88
2023-02-28T04:01:12.572Z,13.94
2023-02-28T04:02:12.584Z,13.94
2023-02-28T04:03:12.626Z,13.88
2023-02-28T04:04:12.688Z,13.93
2023-02-28T04:05:12.720Z,13.91
2023-02-28T04:06:12.785Z,13.89
2023-02-28T04:07:12.825Z,13.89
2023-02-28T04:08:12.858Z,13.91
2023-02-28T04:09:13.954Z,13.89
2023-02-28T04:32:14.124Z,13.83
2023-02-28T04:33:14.043Z,13.83
2023-02-28T04:34:14.098Z,13.88
2023-02-28T04:35:14.143Z,13.89
2023-02-28T04:36:14.216Z,13.80
2023-02-28T04:37:14.561Z,13.86
2023-02-28T04:38:14.293Z,13.82
2023-02-28T04:39:14.381Z,13.80
2023-02-28T04:40:14.416Z,13.83
2023-02-28T04:41:14.454Z,13.77
2023-02-28T04:42:14.536Z,13.79
2023-02-28T04:43:14.642Z,13.79
2023-02-28T04:44:14.630Z,13.85
2023-02-28T04:45:14.695Z,13.82
2023-02-28T04:46:14.746Z,13.86
2023-02-28T04:47:14.794Z,13.82
2023-02-28T04:48:14.864Z,13.82
2023-02-28T04:49:14.925Z,13.82
2023-02-28T04:50:14.999Z,13.85
2023-02-28T04:51:15.054Z,13.86
2023-02-28T04:52:15.119Z,13.85
2023-02-28T04:53:15.197Z,13.83
2023-02-28T04:54:15.228Z,13.79
2023-02-28T04:55:15.301Z,13.79
2023-02-28T04:56:15.373Z,13.79
2023-02-28T04:57:15.414Z,13.85
2023-02-28T04:58:15.502Z,13.79
2023-02-28T04:59:15.552Z,13.79
2023-02-28T05:00:15.612Z,13.76
2023-02-28T05:01:15.670Z,13.82
2023-02-28T05:02:15.800Z,13.82
2023-02-28T05:03:15.777Z,13.76
2023-02-28T05:04:15.905Z,13.77
2023-02-28T05:05:15.938Z,13.83
2023-02-28T05:06:15.973Z,13.76
2023-02-28T05:07:16.050Z,13.85
2023-02-28T05:08:16.101Z,13.77
2023-02-28T05:09:16.163Z,13.78
2023-02-28T05:10:16.239Z,13.76
2023-02-28T05:11:16.274Z,13.80
2023-02-28T05:12:16.336Z,13.78
2023-02-28T05:13:16.397Z,13.82
2023-02-28T05:14:16.411Z,13.82
2023-02-28T05:15:16.448Z,13.80
2023-02-28T05:16:16.578Z,13.76
2023-02-28T05:17:16.561Z,13.76
2023-02-28T05:18:16.611Z,13.82
2023-02-28T05:19:16.689Z,13.76
2023-02-28T05:20:16.718Z,13.68
2023-02-28T05:21:16.803Z,13.72
2023-02-28T05:22:16.816Z,13.68
2023-02-28T05:23:16.876Z,13.71
2023-02-28T05:24:17.004Z,13.69
2023-02-28T05:25:16.993Z,13.74
2023-02-28T05:26:17.032Z,13.74
2023-02-28T05:27:17.068Z,13.72
2023-02-28T05:28:17.147Z,13.72
2023-02-28T05:29:17.230Z,13.75
2023-02-28T05:30:17.269Z,13.72
2023-02-28T05:31:17.334Z,13.69
2023-02-28T05:32:17.396Z,13.74
2023-02-28T05:33:17.459Z,13.69
2023-02-28T05:34:17.516Z,13.71
2023-02-28T05:35:17.553Z,13.72
2023-02-28T05:36:17.622Z,13.68
2023-02-28T05:37:17.655Z,13.68
2023-02-28T05:38:17.734Z,13.68
2023-02-28T05:39:17.779Z,13.62
2023-02-28T05:40:17.827Z,13.65
2023-02-28T05:41:17.858Z,13.68
2023-02-28T05:42:17.908Z,13.65
2023-02-28T05:43:17.952Z,13.66
2023-02-28T05:44:18.021Z,13.72
2023-02-28T05:45:18.066Z,13.69
2023-02-28T05:46:18.114Z,13.62
2023-02-28T05:47:18.141Z,13.68
2023-02-28T05:48:18.169Z,13.66
2023-02-28T05:49:18.248Z,13.69
2023-02-28T05:50:18.303Z,13.66
2023-02-28T05:51:18.316Z,13.71
2023-02-28T05:52:18.332Z,13.63
2023-02-28T05:53:18.375Z,13.69
2023-02-28T05:54:18.454Z,13.63
2023-02-28T05:55:18.493Z,13.65
2023-02-28T05:56:18.559Z,13.69
2023-02-28T05:57:24.328Z,13.63
2023-02-28T05:59:18.592Z,13.67
2023-02-28T06:00:25.580Z,13.69
2023-02-28T06:01:18.597Z,13.66
2023-02-28T06:47:44.859Z,16.37
2023-02-28T07:20:37.627Z,21.19
2023-02-28T07:21:37.638Z,21.36
2023-02-28T07:22:37.733Z,21.46
2023-02-28T07:23:37.614Z,21.52
2023-02-28T07:24:37.643Z,21.62
2023-02-28T07:25:37.707Z,21.39
2023-02-28T07:26:37.578Z,21.24
2023-02-28T07:27:37.590Z,21.11
2023-02-28T07:28:37.588Z,21.62
2023-02-28T07:29:37.665Z,21.59
2023-02-28T07:30:37.721Z,21.77
2023-02-28T07:31:37.809Z,21.82
2023-02-28T07:32:37.900Z,22.02
2023-02-28T07:33:37.860Z,22.18
2023-02-28T07:34:37.934Z,22.40
2023-02-28T07:35:37.979Z,22.41
2023-02-28T07:36:38.058Z,22.23
2023-02-28T07:37:38.079Z,15.16
2023-02-28T07:38:38.145Z,14.54
2023-02-28T07:39:38.160Z,14.05
2023-02-28T07:40:38.668Z,14.47
2023-02-28T07:41:38.196Z,16.47
2023-02-28T07:42:38.219Z,17.21
2023-02-28T07:43:38.275Z,17.99
2023-02-28T07:44:38.312Z,19.18
2023-02-28T07:45:38.617Z,20.23
2023-02-28T07:46:38.434Z,20.53
2023-02-28T07:47:38.359Z,20.93
2023-02-28T07:48:38.418Z,20.79
2023-02-28T07:49:38.497Z,20.80
2023-02-28T07:50:38.487Z,20.86
2023-02-28T07:51:38.538Z,20.81
2023-02-28T07:52:38.585Z,20.89
2023-02-28T07:53:38.536Z,20.94
2023-02-28T07:54:38.553Z,20.95
2023-02-28T07:55:38.637Z,21.02
2023-02-28T07:56:38.670Z,21.04
2023-02-28T07:57:38.717Z,21.15
2023-02-28T07:58:38.792Z,21.25
2023-02-28T07:59:38.808Z,21.21
2023-02-28T08:00:38.849Z,21.28
2023-02-28T08:01:38.890Z,21.42
2023-02-28T08:02:38.890Z,21.46
2023-02-28T08:03:38.895Z,21.77
2023-02-28T08:04:38.970Z,21.83
2023-02-28T08:05:39.147Z,22.06
2023-02-28T08:06:38.948Z,22.28
2023-02-28T08:07:38.869Z,22.53
2023-02-28T08:08:38.904Z,22.66
2023-02-28T08:09:38.911Z,22.85
2023-02-28T08:10:38.911Z,23.02
2023-02-28T08:11:39.174Z,23.21
2023-02-28T08:12:38.937Z,23.41
2023-02-28T08:13:38.999Z,23.48
2023-02-28T08:14:38.989Z,23.34
2023-02-28T08:15:39.008Z,23.15
2023-02-28T08:16:39.147Z,23.12
2023-02-28T08:17:38.989Z,22.96
2023-02-28T08:18:39.040Z,23.11
2023-02-28T08:19:39.027Z,22.80
2023-02-28T08:20:39.046Z,22.86
2023-02-28T08:21:39.053Z,22.87
2023-02-28T08:22:39.010Z,22.91
2023-02-28T08:23:39.066Z,23.05
2023-02-28T08:24:39.035Z,22.99
2023-02-28T08:25:39.011Z,23.07
2023-02-28T08:26:39.185Z,22.91
2023-02-28T08:27:39.016Z,23.05
2023-02-28T08:28:39.061Z,22.86
2023-02-28T08:29:39.070Z,22.74
2023-02-28T08:30:39.100Z,22.65
2023-02-28T08:31:39.740Z,22.53
2023-02-28T08:32:39.492Z,22.29
2023-02-28T08:33:39.359Z,21.70
2023-02-28T08:34:39.200Z,21.62
2023-02-28T08:35:39.242Z,21.59
2023-02-28T08:36:39.751Z,21.00
2023-02-28T08:37:39.203Z,20.95
2023-02-28T08:38:39.279Z,19.51
2023-02-28T08:39:39.292Z,18.40
2023-02-28T08:40:39.349Z,16.87
2023-02-28T08:41:39.648Z,16.31
2023-02-28T08:42:39.364Z,15.88
2023-02-28T08:43:39.340Z,16.67
2023-02-28T08:44:39.355Z,17.52
2023-02-28T08:45:39.481Z,18.59
2023-02-28T08:56:39.615Z,15.42
2023-02-28T09:06:40.164Z,17.13
2023-02-28T09:07:40.140Z,16.91
2023-02-28T09:08:40.123Z,17.15
2023-02-28T09:09:40.184Z,16.81
2023-02-28T09:10:40.194Z,17.20
2023-02-28T09:11:40.680Z,17.02
2023-02-28T09:12:40.134Z,17.18
2023-02-28T09:13:40.138Z,17.45
2023-02-28T09:14:40.184Z,17.74
2023-02-28T09:15:40.253Z,15.48
2023-02-28T09:16:40.264Z,15.67
2023-02-28T09:17:40.676Z,15.97
2023-02-28T09:18:40.264Z,16.53
2023-02-28T09:19:40.200Z,16.79
2023-02-28T09:21:40.281Z,17.59
2023-02-28T09:22:40.275Z,17.40
2023-02-28T09:23:40.330Z,17.57
2023-02-28T09:25:40.458Z,16.17
2023-02-28T09:26:43.068Z,15.91
2023-02-28T09:27:42.410Z,16.33
2023-02-28T09:28:40.482Z,16.32
2023-02-28T09:29:40.484Z,16.39
2023-02-28T09:30:40.480Z,16.85
2023-02-28T09:31:40.503Z,14.60
2023-02-28T09:32:40.659Z,16.07
2023-02-28T09:33:40.451Z,16.80
2023-02-28T09:34:40.600Z,16.88
2023-02-28T09:35:40.438Z,17.03
2023-02-28T09:36:45.514Z,17.09
2023-02-28T09:37:42.666Z,17.14
2023-02-28T09:38:40.376Z,17.23
2023-02-28T09:39:41.084Z,17.23
2023-02-28T09:40:40.406Z,17.25
2023-02-28T09:41:40.374Z,17.18
2023-02-28T09:42:40.661Z,17.17
2023-02-28T09:43:40.427Z,17.21
2023-02-28T09:44:40.425Z,17.00
2023-02-28T09:45:40.676Z,16.94
2023-02-28T09:46:40.612Z,16.84
2023-02-28T09:47:40.584Z,16.70
2023-02-28T09:48:41.258Z,16.60
2023-02-28T09:49:40.665Z,16.55
2023-02-28T09:50:40.709Z,17.08
2023-02-28T09:51:40.748Z,17.10
2023-02-28T09:52:41.199Z,15.31
2023-02-28T09:53:41.020Z,15.35
2023-02-28T09:54:40.793Z,16.20
2023-02-28T09:55:46.459Z,16.78
2023-02-28T09:56:41.795Z,16.98
2023-02-28T09:57:40.839Z,16.86
2023-02-28T09:58:40.833Z,16.96
2023-02-28T09:59:40.802Z,16.97
2023-02-28T10:00:40.805Z,17.21
2023-02-28T10:01:40.824Z,17.56
2023-02-28T10:02:40.813Z,17.87
2023-02-28T10:03:40.757Z,17.99
2023-02-28T10:04:40.852Z,17.98
2023-02-28T10:05:42.816Z,18.16
2023-02-28T10:06:40.743Z,18.50
2023-02-28T10:07:41.176Z,18.64
2023-02-28T10:08:40.735Z,18.61
2023-02-28T10:09:40.700Z,18.70
2023-02-28T10:10:40.777Z,18.65
2023-02-28T10:11:40.732Z,18.79
2023-02-28T10:12:40.830Z,19.03
2023-02-28T10:13:40.730Z,19.02
2023-02-28T10:14:40.717Z,19.22
2023-02-28T10:15:40.765Z,19.36
2023-02-28T10:16:40.682Z,19.44
2023-02-28T10:17:54.937Z,19.62
2023-02-28T10:18:41.676Z,19.42
2023-02-28T10:19:40.745Z,19.76
2023-02-28T10:20:40.815Z,19.66
2023-02-28T10:21:40.852Z,19.87
2023-02-28T10:22:41.155Z,19.92
2023-02-28T10:23:40.950Z,19.88
2023-02-28T10:24:40.997Z,20.16
2023-02-28T10:25:41.087Z,20.23
2023-02-28T10:26:41.134Z,20.17
2023-02-28T10:27:41.188Z,17.75
2023-02-28T10:28:41.158Z,17.90
2023-02-28T10:29:41.187Z,18.66
2023-02-28T10:30:41.340Z,19.11
2023-02-28T10:31:41.285Z,19.13
2023-02-28T10:32:41.376Z,19.29
2023-02-28T10:33:41.364Z,19.40
2023-02-28T10:34:41.413Z,19.66
2023-02-28T10:35:41.391Z,19.87
2023-02-28T10:36:42.194Z,20.01
2023-02-28T10:37:41.435Z,20.25
2023-02-28T10:38:41.447Z,20.22
2023-02-28T10:39:41.412Z,20.37
2023-02-28T10:40:41.496Z,20.49
2023-02-28T10:41:41.525Z,20.40
2023-02-28T10:42:41.701Z,20.59
2023-02-28T10:43:41.592Z,20.70
2023-02-28T10:44:41.610Z,17.39
2023-02-28T10:45:41.664Z,15.56
2023-02-28T10:46:41.754Z,16.55
2023-02-28T10:47:41.737Z,17.38
2023-02-28T10:48:42.197Z,16.49
2023-02-28T10:49:41.854Z,17.00
2023-02-28T10:50:42.307Z,16.49
2023-02-28T10:51:41.969Z,15.97
2023-02-28T10:52:42.212Z,15.97
2023-02-28T10:53:59.520Z,15.25
2023-02-28T10:54:42.954Z,14.47
2023-02-28T10:55:41.932Z,15.11
2023-02-28T10:56:41.945Z,15.46
2023-02-28T10:57:41.931Z,15.77
2023-02-28T10:58:41.911Z,15.99
2023-02-28T10:59:41.926Z,16.03
2023-02-28T11:00:41.994Z,15.95
2023-02-28T11:01:42.376Z,16.28
2023-02-28T11:02:42.040Z,16.23
2023-02-28T11:03:42.444Z,16.40
2023-02-28T11:04:42.035Z,16.59
2023-02-28T11:05:41.866Z,16.69
2023-02-28T11:06:41.904Z,15.73
2023-02-28T11:07:53.034Z,15.86
2023-02-28T11:08:42.850Z,15.73
2023-02-28T11:09:41.869Z,16.31
2023-02-28T11:10:41.868Z,16.77
2023-02-28T11:11:41.830Z,16.90
2023-02-28T11:12:47.353Z,17.09
2023-02-28T11:13:42.836Z,17.36
2023-02-28T11:14:41.800Z,17.68
2023-02-28T11:15:41.887Z,17.84
2023-02-28T11:16:41.804Z,17.90
2023-02-28T11:17:41.764Z,18.00
2023-02-28T11:18:42.737Z,18.30
2023-02-28T11:19:42.322Z,18.28
2023-02-28T11:20:41.756Z,18.31
2023-02-28T11:21:41.742Z,18.19
2023-02-28T11:22:41.758Z,16.58
2023-02-28T11:23:41.752Z,16.26
2023-02-28T11:24:41.750Z,16.76
2023-02-28T11:25:41.719Z,16.81
2023-02-28T11:26:41.841Z,16.83
2023-02-28T11:27:41.879Z,16.95
2023-02-28T11:28:42.214Z,17.06
2023-02-28T11:29:41.987Z,17.23
2023-02-28T11:30:41.986Z,17.32
2023-02-28T11:31:42.112Z,17.39
2023-02-28T11:32:42.157Z,17.50
2023-02-28T11:33:42.078Z,17.59
2023-02-28T11:34:42.123Z,17.55
2023-02-28T11:35:42.202Z,17.34
2023-02-28T11:36:42.172Z,16.07
2023-02-28T11:37:42.161Z,15.95
2023-02-28T11:38:42.706Z,16.55
2023-02-28T11:39:42.232Z,16.88
2023-02-28T11:40:42.233Z,17.00
2023-02-28T11:41:42.253Z,17.20
2023-02-28T11:42:42.332Z,17.35
2023-02-28T11:43:42.319Z,17.80
2023-02-28T11:44:42.396Z,17.66
2023-02-28T11:45:42.425Z,17.27
2023-02-28T11:46:42.490Z,17.13
2023-02-28T11:47:42.541Z,17.09
2023-02-28T11:48:42.535Z,17.00
2023-02-28T11:49:42.562Z,17.05
2023-02-28T11:50:42.573Z,17.03
2023-02-28T11:51:42.633Z,17.19
2023-02-28T11:54:42.693Z,16.50
2023-02-28T11:55:42.696Z,16.42
2023-02-28T11:56:42.797Z,16.53
2023-02-28T11:57:42.830Z,16.74
2023-02-28T11:58:42.922Z,16.88
2023-02-28T11:59:42.944Z,17.03
2023-02-28T12:00:42.994Z,17.06
2023-02-28T12:01:43.045Z,17.12
2023-02-28T12:02:43.278Z,16.69
2023-02-28T12:03:43.130Z,16.31
2023-02-28T12:04:43.184Z,16.37
2023-02-28T12:05:43.304Z,16.16
2023-02-28T12:06:43.494Z,16.37
2023-02-28T12:07:43.192Z,16.24
2023-02-28T12:08:43.192Z,16.26
2023-02-28T12:09:43.209Z,16.49
2023-02-28T12:10:43.236Z,16.69
2023-02-28T12:11:43.227Z,16.67
2023-02-28T12:12:43.228Z,16.55
2023-02-28T12:13:43.314Z,16.25
2023-02-28T12:14:43.258Z,16.04
2023-02-28T12:15:43.313Z,16.38
2023-02-28T12:16:43.353Z,16.41
2023-02-28T12:17:43.346Z,16.53
2023-02-28T12:18:43.346Z,16.34
2023-02-28T12:19:44.721Z,16.41
2023-02-28T12:20:43.432Z,16.40
2023-02-28T12:21:43.411Z,16.35
2023-02-28T12:22:43.452Z,16.46
2023-02-28T12:23:43.766Z,16.10
2023-02-28T12:24:43.426Z,16.37
2023-02-28T12:25:43.472Z,16.43
2023-02-28T12:26:43.504Z,16.37
2023-02-28T12:27:43.515Z,16.47
2023-02-28T12:28:43.755Z,15.55
2023-02-28T12:29:43.548Z,15.93
2023-02-28T12:30:43.574Z,15.94
2023-02-28T12:31:43.599Z,16.68
2023-02-28T12:32:43.666Z,16.56
2023-02-28T12:33:43.723Z,16.79
2023-02-28T12:34:43.663Z,17.56
2023-02-28T12:35:43.810Z,17.75
2023-02-28T12:36:43.701Z,17.96
2023-02-28T12:37:43.731Z,18.00
2023-02-28T12:38:44.242Z,17.07
2023-02-28T12:39:50.177Z,17.09
2023-02-28T12:40:44.788Z,17.22
2023-02-28T12:41:43.794Z,17.28
2023-02-28T12:42:43.787Z,17.57
2023-02-28T12:43:43.785Z,17.90
2023-02-28T12:44:43.761Z,18.30
2023-02-28T12:45:43.800Z,18.83
2023-02-28T12:46:43.802Z,19.56
2023-02-28T12:47:43.746Z,19.01
2023-02-28T12:48:43.771Z,20.01
2023-02-28T12:49:43.853Z,19.35
2023-02-28T12:50:43.731Z,20.22
2023-02-28T12:51:43.734Z,19.96
2023-02-28T12:52:43.692Z,20.22
2023-02-28T12:53:43.719Z,20.87
2023-02-28T12:54:43.760Z,20.25
2023-02-28T12:55:43.771Z,20.16
2023-02-28T12:56:43.771Z,20.17
2023-02-28T12:57:43.795Z,20.75
2023-02-28T12:58:43.815Z,21.03
2023-02-28T12:59:43.826Z,21.62
2023-02-28T13:00:43.847Z,22.28
2023-02-28T13:01:43.856Z,21.68
2023-02-28T13:02:43.873Z,21.53
2023-02-28T13:03:43.895Z,21.71
2023-02-28T13:04:43.875Z,22.33
2023-02-28T13:05:43.928Z,22.44
2023-02-28T13:06:43.905Z,22.54
2023-02-28T13:07:43.942Z,22.27
2023-02-28T13:08:43.943Z,21.91
2023-02-28T13:09:43.970Z,22.81
2023-02-28T13:10:43.978Z,21.95
2023-02-28T13:11:44.027Z,23.19
2023-02-28T13:12:44.036Z,23.58
2023-02-28T13:13:44.076Z,22.62
2023-02-28T13:14:44.119Z,23.73
2023-02-28T13:15:44.179Z,22.85
2023-02-28T13:16:44.224Z,22.37
2023-02-28T13:17:44.222Z,23.02
2023-02-28T13:18:44.269Z,22.65
2023-02-28T13:19:44.299Z,22.89
2023-02-28T13:20:44.328Z,22.78
2023-02-28T13:21:44.402Z,23.13
2023-02-28T13:22:44.420Z,22.73
2023-02-28T13:23:44.479Z,22.87
2023-02-28T13:24:44.525Z,23.30
2023-02-28T13:25:44.577Z,23.99
2023-02-28T13:26:44.794Z,23.68
2023-02-28T13:27:44.605Z,23.39
2023-02-28T13:28:44.585Z,23.57
2023-02-28T13:29:44.607Z,23.35
2023-02-28T13:30:44.773Z,22.80
2023-02-28T13:31:44.632Z,23.21
2023-02-28T13:32:44.628Z,23.25
2023-02-28T13:33:44.660Z,23.63
2023-02-28T13:34:44.685Z,24.60
2023-02-28T13:35:44.685Z,23.41
2023-02-28T13:36:44.655Z,23.80
2023-02-28T13:37:44.684Z,24.19
2023-02-28T13:38:44.700Z,24.26
2023-02-28T13:39:44.748Z,23.91
2023-02-28T13:40:44.764Z,24.22
2023-02-28T13:41:44.805Z,24.24
2023-02-28T13:42:44.821Z,23.94
2023-02-28T13:43:44.828Z,23.92
2023-02-28T13:44:44.906Z,23.31
2023-02-28T13:45:45.024Z,23.11
2023-02-28T13:46:44.927Z,22.88
2023-02-28T13:47:44.972Z,22.58
2023-02-28T13:48:45.039Z,22.35
2023-02-28T13:49:45.094Z,21.99
2023-02-28T13:50:45.115Z,21.65
2023-02-28T13:51:45.091Z,21.48
2023-02-28T13:52:48.993Z,21.26
2023-02-28T13:53:45.661Z,20.98
2023-02-28T13:54:45.113Z,20.74
2023-02-28T13:55:45.104Z,20.74
2023-02-28T13:56:45.101Z,20.67
2023-02-28T13:57:45.096Z,20.80
2023-02-28T13:58:45.095Z,20.76
2023-02-28T13:59:45.048Z,20.62
2023-02-28T14:00:45.067Z,20.67
2023-02-28T14:01:45.063Z,20.50
2023-02-28T14:02:45.079Z,20.38
2023-02-28T14:03:45.111Z,20.30
2023-02-28T14:04:45.181Z,20.30
2023-02-28T14:05:45.704Z,20.20
2023-02-28T14:06:45.129Z,20.07
2023-02-28T14:07:45.100Z,20.02
2023-02-28T14:08:45.117Z,19.90
2023-02-28T14:09:45.209Z,19.84
2023-02-28T14:10:45.811Z,19.79
2023-02-28T14:11:45.157Z,19.73
2023-02-28T14:12:46.009Z,19.64
2023-02-28T14:13:46.070Z,19.44
2023-02-28T14:14:45.701Z,19.48
2023-02-28T14:15:45.888Z,19.31
2023-02-28T14:16:45.824Z,19.28
2023-02-28T14:17:45.542Z,19.20
2023-02-28T14:18:45.595Z,19.15
2023-02-28T14:19:45.630Z,19.12
2023-02-28T14:20:45.694Z,19.14
2023-02-28T14:21:45.742Z,18.99
2023-02-28T14:22:45.770Z,18.98
2023-02-28T14:23:45.839Z,18.98
2023-02-28T14:24:45.859Z,18.92
2023-02-28T14:25:45.874Z,18.85
2023-02-28T14:26:45.948Z,18.79
2023-02-28T14:27:45.943Z,18.76
2023-02-28T14:28:45.999Z,18.73
2023-02-28T14:29:46.050Z,18.70
2023-02-28T14:30:46.041Z,18.64
2023-02-28T14:31:46.144Z,18.63
2023-02-28T14:32:46.118Z,18.60
2023-02-28T14:33:46.116Z,18.54
2023-02-28T14:34:46.180Z,18.53
2023-02-28T14:35:46.245Z,18.53
2023-02-28T14:36:46.248Z,18.46
2023-02-28T14:37:46.273Z,18.38
2023-02-28T14:38:46.265Z,18.35
2023-02-28T14:39:46.347Z,18.31
2023-02-28T14:40:46.365Z,18.28
2023-02-28T14:41:46.487Z,18.31
2023-02-28T14:42:46.418Z,18.25
2023-02-28T14:43:46.425Z,18.21
2023-02-28T14:44:46.495Z,18.21
2023-02-28T14:45:46.552Z,18.12
2023-02-28T14:46:46.590Z,18.12
2023-02-28T14:47:46.630Z,18.11
2023-02-28T14:48:46.601Z,18.14
2023-02-28T14:49:46.821Z,18.03
2023-02-28T14:50:46.690Z,17.99
2023-02-28T14:51:46.692Z,17.94
2023-02-28T14:52:46.704Z,17.96
2023-02-28T14:53:46.762Z,17.96
2023-02-28T14:54:46.751Z,17.90
2023-02-28T14:55:46.761Z,17.94
2023-02-28T14:56:46.780Z,17.84
2023-02-28T14:57:46.832Z,17.84
2023-02-28T14:58:46.832Z,17.84
2023-02-28T14:59:46.868Z,17.84
2023-02-28T15:00:46.903Z,17.79
2023-02-28T15:01:46.967Z,17.78
2023-02-28T15:02:46.909Z,17.77
2023-02-28T15:03:46.934Z,17.75
2023-02-28T15:04:46.965Z,17.71
2023-02-28T15:05:46.966Z,17.68
2023-02-28T15:06:46.998Z,17.66
2023-02-28T15:07:47.007Z,17.71
2023-02-28T15:08:46.975Z,17.63
2023-02-28T15:09:47.016Z,17.68
2023-02-28T15:10:47.024Z,17.67
2023-02-28T15:11:47.029Z,17.68
2023-02-28T15:12:47.041Z,17.61
2023-02-28T15:13:47.068Z,17.61
2023-02-28T15:14:48.798Z,17.59
2023-02-28T15:16:01.284Z,17.65
2023-02-28T15:16:48.102Z,17.62
2023-02-28T15:17:47.010Z,17.59
2023-02-28T15:18:47.040Z,17.56
2023-02-28T15:19:47.014Z,17.55
2023-02-28T15:20:46.988Z,17.58
2023-02-28T15:21:46.990Z,17.53
2023-02-28T15:22:47.002Z,17.59
2023-02-28T15:23:46.972Z,17.50
2023-02-28T15:24:46.986Z,17.46
2023-02-28T15:25:46.993Z,17.40
2023-02-28T15:26:46.958Z,17.43
2023-02-28T15:27:46.936Z,17.46
2023-02-28T15:28:46.947Z,17.47
2023-02-28T15:29:46.958Z,17.40
2023-02-28T15:30:46.916Z,17.43
2023-02-28T15:31:57.579Z,17.40
2023-02-28T15:32:48.080Z,17.37
2023-02-28T15:33:46.904Z,17.34
2023-02-28T15:34:46.917Z,17.36
2023-02-28T15:35:46.888Z,17.36
2023-02-28T15:36:46.858Z,17.36
2023-02-28T15:37:46.969Z,17.34
2023-02-28T15:38:46.920Z,17.28
2023-02-28T15:39:46.867Z,17.36
2023-02-28T15:40:46.870Z,17.33
2023-02-28T15:41:46.850Z,17.27
2023-02-28T15:42:46.864Z,17.27
2023-02-28T15:43:46.838Z,17.27
2023-02-28T15:44:46.842Z,17.23
2023-02-28T15:45:46.871Z,17.27
2023-02-28T15:46:46.827Z,17.29
2023-02-28T15:47:46.897Z,17.23
2023-02-28T15:48:46.792Z,17.20
2023-02-28T15:49:46.806Z,17.23
2023-02-28T15:50:46.774Z,17.24
2023-02-28T15:51:46.816Z,17.15
2023-02-28T15:52:46.763Z,17.15
2023-02-28T15:53:46.758Z,17.18
2023-02-28T15:54:46.856Z,17.15
2023-02-28T15:55:46.736Z,17.11
2023-02-28T15:56:46.717Z,17.11
2023-02-28T15:57:46.713Z,17.12
2023-02-28T15:58:46.744Z,17.05
2023-02-28T15:59:46.810Z,17.08
2023-02-28T16:00:46.719Z,17.12
2023-02-28T16:01:46.833Z,17.12
2023-02-28T16:02:46.893Z,17.11